createdAt,value
2019-05-20T00:00:24.905Z,16.61
2019-05-20T00:02:54.850Z,16.58
2019-05-20T00:05:24.501Z,16.56
2019-05-20T00:07:54.274Z,16.52
2019-05-20T00:10:23.722Z,16.50
2019-05-20T00:12:53.555Z,16.49
2019-05-20T00:15:23.036Z,16.47
2019-05-20T00:17:52.545Z,16.44
2019-05-20T00:20:22.479Z,16.43
2019-05-20T00:22:52.050Z,16.42
2019-05-20T00:25:21.620Z,16.40
2019-05-20T00:27:51.368Z,16.39
2019-05-20T00:30:21.482Z,16.37
2019-05-20T00:32:51.357Z,16.35
2019-05-20T00:35:21.379Z,16.35
2019-05-20T00:37:50.836Z,16.34
2019-05-20T00:40:20.412Z,16.30
2019-05-20T00:42:49.916Z,16.27
2019-05-20T00:45:19.500Z,16.26
2019-05-20T00:47:50.187Z,16.25
2019-05-20T00:50:19.701Z,16.19
2019-05-20T00:52:49.266Z,16.13
2019-05-20T00:55:24.648Z,16.12
2019-05-20T00:57:54.155Z,16.11
2019-05-20T01:00:24.258Z,16.11
2019-05-20T01:02:56.785Z,16.08
2019-05-20T01:05:26.068Z,16.06
2019-05-20T01:07:55.574Z,16.05
2019-05-20T01:10:25.099Z,16.02
2019-05-20T01:12:55.030Z,15.99
2019-05-20T01:15:24.622Z,15.96
2019-05-20T01:17:54.141Z,15.93
2019-05-20T01:20:23.607Z,15.90
2019-05-20T01:22:53.176Z,15.86
2019-05-20T01:25:22.651Z,15.83
2019-05-20T01:27:52.226Z,15.80
2019-05-20T01:30:22.117Z,15.78
2019-05-20T01:32:51.641Z,15.75
2019-05-20T01:35:21.152Z,15.73
2019-05-20T01:37:50.613Z,15.71
2019-05-20T01:40:20.626Z,15.66
2019-05-20T01:42:50.084Z,15.62
2019-05-20T01:45:19.682Z,15.58
2019-05-20T01:47:49.202Z,15.52
2019-05-20T01:50:18.789Z,15.46
2019-05-20T01:52:48.245Z,15.42
2019-05-20T01:55:17.856Z,15.40
2019-05-20T01:57:47.369Z,15.39
2019-05-20T02:00:17.221Z,15.37
2019-05-20T02:02:46.746Z,15.31
2019-05-20T02:05:16.313Z,15.27
2019-05-20T02:07:45.772Z,15.25
2019-05-20T02:10:15.678Z,15.20
2019-05-20T02:12:45.191Z,15.16
2019-05-20T02:15:28.986Z,15.15
2019-05-20T02:17:58.937Z,15.12
2019-05-20T02:20:28.404Z,15.09
2019-05-20T02:23:16.837Z,15.06
2019-05-20T02:25:48.700Z,15.02
2019-05-20T02:28:18.351Z,14.99
2019-05-20T02:30:47.832Z,14.96
2019-05-20T02:33:17.338Z,14.95
2019-05-20T02:35:46.793Z,14.93
2019-05-20T02:38:16.299Z,14.91
2019-05-20T02:40:45.823Z,14.89
2019-05-20T02:43:15.554Z,14.87
2019-05-20T02:45:45.080Z,14.85
2019-05-20T02:48:14.721Z,14.81
2019-05-20T02:50:44.494Z,14.78
2019-05-20T02:53:14.004Z,14.77
2019-05-20T02:55:43.957Z,14.75
2019-05-20T02:58:13.831Z,14.71
2019-05-20T03:00:43.420Z,14.67
2019-05-20T03:03:12.922Z,14.66
2019-05-20T03:05:42.806Z,14.65
2019-05-20T03:08:12.393Z,14.62
2019-05-20T03:10:42.584Z,14.61
2019-05-20T03:13:13.153Z,14.60
2019-05-20T03:15:42.678Z,14.60
2019-05-20T03:18:12.200Z,14.60
2019-05-20T03:20:41.724Z,14.61
2019-05-20T03:23:11.397Z,14.56
2019-05-20T03:25:41.044Z,14.54
2019-05-20T03:28:10.878Z,14.53
2019-05-20T03:30:40.805Z,14.48
2019-05-20T03:33:10.622Z,14.43
2019-05-20T03:35:40.162Z,14.45
2019-05-20T03:38:09.609Z,14.47
2019-05-20T03:40:39.171Z,14.50
2019-05-20T03:43:09.002Z,14.52
2019-05-20T03:45:38.611Z,14.55
2019-05-20T03:48:08.055Z,14.57
2019-05-20T03:50:37.563Z,14.56
2019-05-20T03:53:07.080Z,14.53
2019-05-20T03:55:36.622Z,14.48
2019-05-20T03:58:06.076Z,14.44
2019-05-20T04:00:48.414Z,14.40
2019-05-20T04:03:18.107Z,14.43
2019-05-20T04:05:47.630Z,14.49
2019-05-20T04:08:17.157Z,14.58
2019-05-20T04:10:46.751Z,14.66
2019-05-20T04:13:16.419Z,14.76
2019-05-20T04:15:45.890Z,14.82
2019-05-20T04:18:16.816Z,14.89
2019-05-20T04:20:46.329Z,14.97
2019-05-20T04:23:15.850Z,15.04
2019-05-20T04:25:45.385Z,15.10
2019-05-20T04:28:14.977Z,15.14
2019-05-20T04:30:44.560Z,15.18
2019-05-20T04:33:14.113Z,15.26
2019-05-20T04:35:43.574Z,15.32
2019-05-20T04:38:13.421Z,15.39
2019-05-20T04:40:43.253Z,15.43
2019-05-20T04:43:13.256Z,15.46
2019-05-20T04:45:43.052Z,15.49
2019-05-20T04:48:13.909Z,15.55
2019-05-20T04:50:43.671Z,15.62
2019-05-20T04:53:13.145Z,15.69
2019-05-20T04:55:42.980Z,15.77
2019-05-20T04:58:12.899Z,15.85
2019-05-20T05:00:56.517Z,15.93
2019-05-20T05:03:26.041Z,16.02
2019-05-20T05:05:55.992Z,16.14
2019-05-20T05:08:25.784Z,16.25
2019-05-20T05:10:55.496Z,16.36
2019-05-20T05:13:25.426Z,16.46
2019-05-20T05:15:55.103Z,16.58
2019-05-20T05:18:24.623Z,16.62
2019-05-20T05:20:54.204Z,16.65
2019-05-20T05:23:24.428Z,16.63
2019-05-20T05:25:54.105Z,16.63
2019-05-20T05:28:23.722Z,16.59
2019-05-20T05:30:53.552Z,16.61
2019-05-20T05:33:23.008Z,16.62
2019-05-20T05:35:53.756Z,16.67
2019-05-20T05:38:23.835Z,16.67
2019-05-20T05:40:53.353Z,16.68
2019-05-20T05:43:22.861Z,16.64
2019-05-20T05:45:52.428Z,16.71
2019-05-20T05:48:22.154Z,16.74
2019-05-20T05:50:51.975Z,16.74
2019-05-20T05:53:21.497Z,16.74
2019-05-20T05:55:50.959Z,16.80
2019-05-20T05:58:20.495Z,16.87
2019-05-20T06:00:49.940Z,16.90
2019-05-20T06:03:20.220Z,16.92
2019-05-20T06:05:49.661Z,17.00
2019-05-20T06:08:19.281Z,17.02
2019-05-20T06:10:48.845Z,17.06
2019-05-20T06:13:18.408Z,17.19
2019-05-20T06:15:48.265Z,17.28
2019-05-20T06:18:17.822Z,17.46
2019-05-20T06:20:47.343Z,17.52
2019-05-20T06:23:17.872Z,17.69
2019-05-20T06:25:47.423Z,17.82
2019-05-20T06:28:16.980Z,17.89
2019-05-20T06:30:48.196Z,17.91
2019-05-20T06:33:18.791Z,17.95
2019-05-20T06:35:48.392Z,17.98
2019-05-20T06:38:19.853Z,18.09
2019-05-20T06:40:50.339Z,18.19
2019-05-20T06:43:19.900Z,18.28
2019-05-20T06:45:49.373Z,18.38
2019-05-20T06:48:18.900Z,18.46
2019-05-20T06:50:48.329Z,18.46
2019-05-20T06:53:17.783Z,18.44
2019-05-20T06:55:47.291Z,18.52
2019-05-20T06:58:17.213Z,18.49
2019-05-20T07:00:46.772Z,18.56
2019-05-20T07:03:16.235Z,18.65
2019-05-20T07:05:45.888Z,18.55
2019-05-20T07:08:15.407Z,18.57
2019-05-20T07:10:45.382Z,18.66
2019-05-20T07:13:16.355Z,18.82
2019-05-20T07:15:46.149Z,18.89
2019-05-20T07:18:15.662Z,18.94
2019-05-20T07:20:45.472Z,19.06
2019-05-20T07:23:14.995Z,19.16
2019-05-20T07:25:44.615Z,19.27
2019-05-20T07:28:14.171Z,19.38
2019-05-20T07:30:43.655Z,19.46
2019-05-20T07:33:13.424Z,19.59
2019-05-20T07:35:43.007Z,19.74
2019-05-20T07:38:12.563Z,19.82
2019-05-20T07:40:42.122Z,19.92
2019-05-20T07:43:11.982Z,19.97
2019-05-20T07:45:42.743Z,20.01
2019-05-20T07:48:12.850Z,19.88
2019-05-20T07:50:43.752Z,19.79
2019-05-20T07:53:13.843Z,19.93
2019-05-20T07:56:00.276Z,20.17
2019-05-20T07:58:33.662Z,20.36
2019-05-20T08:01:04.146Z,20.54
2019-05-20T08:03:38.438Z,20.51
2019-05-20T08:06:05.912Z,20.61
2019-05-20T08:08:35.439Z,20.71
2019-05-20T08:11:05.323Z,20.83
2019-05-20T08:13:34.896Z,20.93
2019-05-20T08:16:04.499Z,20.83
2019-05-20T08:18:35.369Z,20.81
2019-05-20T08:21:05.369Z,20.85
2019-05-20T08:23:34.926Z,20.89
2019-05-20T08:26:04.519Z,20.93
2019-05-20T08:28:34.605Z,21.03
2019-05-20T08:31:04.148Z,21.15
2019-05-20T08:33:34.208Z,21.23
2019-05-20T08:36:03.901Z,21.28
2019-05-20T08:38:33.855Z,21.36
2019-05-20T08:41:03.310Z,21.37
2019-05-20T08:43:32.914Z,21.44
2019-05-20T08:46:02.379Z,21.50
2019-05-20T08:48:32.027Z,21.57
2019-05-20T08:51:01.882Z,21.44
2019-05-20T08:53:31.388Z,21.38
2019-05-20T08:56:00.935Z,21.41
2019-05-20T08:58:30.394Z,21.43
2019-05-20T09:00:59.886Z,21.43
2019-05-20T09:03:30.544Z,21.48
2019-05-20T09:06:01.646Z,21.54
2019-05-20T09:08:31.437Z,21.74
2019-05-20T09:11:01.016Z,21.96
2019-05-20T09:13:30.553Z,22.02
2019-05-20T09:16:00.464Z,22.15
2019-05-20T09:18:30.434Z,22.38
2019-05-20T09:21:00.049Z,22.66
2019-05-20T09:23:29.523Z,22.81
2019-05-20T09:25:59.650Z,22.84
2019-05-20T09:28:29.254Z,22.99
2019-05-20T09:30:58.753Z,23.10
2019-05-20T09:33:28.447Z,22.97
2019-05-20T09:35:58.240Z,22.91
2019-05-20T09:38:27.785Z,22.82
2019-05-20T09:40:57.726Z,22.86
2019-05-20T09:43:27.614Z,22.88
2019-05-20T09:46:07.679Z,22.90
2019-05-20T09:48:28.328Z,22.85
2019-05-20T09:50:57.874Z,22.72
2019-05-20T09:55:55.827Z,22.85
2019-05-20T09:58:25.405Z,22.88
2019-05-20T10:00:54.890Z,22.94
2019-05-20T10:03:24.386Z,22.90
2019-05-20T10:05:53.867Z,22.96
2019-05-20T10:08:37.502Z,23.04
2019-05-20T10:10:59.412Z,23.01
2019-05-20T10:13:26.125Z,22.86
2019-05-20T10:15:55.589Z,22.68
2019-05-20T10:18:36.884Z,22.57
2019-05-20T10:20:56.292Z,22.56
2019-05-20T10:23:25.898Z,22.59
2019-05-20T10:25:55.364Z,22.73
2019-05-20T10:28:25.377Z,22.85
2019-05-20T10:30:54.915Z,23.14
2019-05-20T10:33:24.474Z,23.34
2019-05-20T10:35:53.955Z,23.40
2019-05-20T10:38:23.952Z,23.52
2019-05-20T10:40:54.306Z,23.43
2019-05-20T10:43:23.922Z,23.52
2019-05-20T10:45:53.752Z,23.56
2019-05-20T10:48:23.346Z,23.60
2019-05-20T10:50:52.863Z,23.71
2019-05-20T10:53:22.475Z,23.69
2019-05-20T10:55:52.411Z,23.72
2019-05-20T10:58:21.931Z,23.75
2019-05-20T11:01:02.336Z,23.80
2019-05-20T11:03:22.709Z,23.72
2019-05-20T11:05:52.233Z,23.53
2019-05-20T11:08:21.758Z,23.54
2019-05-20T11:10:51.378Z,23.59
2019-05-20T11:13:20.899Z,23.82
2019-05-20T11:15:50.394Z,23.95
2019-05-20T11:18:19.881Z,24.01
2019-05-20T11:20:49.385Z,23.98
2019-05-20T11:23:18.913Z,24.08
2019-05-20T11:25:48.426Z,24.32
2019-05-20T11:28:17.882Z,24.38
2019-05-20T11:30:47.400Z,24.21
2019-05-20T11:33:16.928Z,24.25
2019-05-20T11:35:46.745Z,24.21
2019-05-20T11:38:16.256Z,24.28
2019-05-20T11:40:46.835Z,24.37
2019-05-20T11:43:16.800Z,24.57
2019-05-20T11:45:46.322Z,24.74
2019-05-20T11:48:15.900Z,24.96
2019-05-20T11:50:45.337Z,25.13
2019-05-20T11:53:14.965Z,25.20
2019-05-20T11:55:45.425Z,25.22
2019-05-20T11:58:16.354Z,25.28
2019-05-20T12:00:46.321Z,25.36
2019-05-20T12:03:15.797Z,25.48
2019-05-20T12:05:45.408Z,25.60
2019-05-20T12:08:14.936Z,25.62
2019-05-20T12:10:44.974Z,25.69
2019-05-20T12:13:14.417Z,25.80
2019-05-20T12:15:44.120Z,25.86
2019-05-20T12:18:13.648Z,25.92
2019-05-20T12:20:43.209Z,26.08
2019-05-20T12:23:12.659Z,26.34
2019-05-20T12:25:42.201Z,26.26
2019-05-20T12:28:11.827Z,26.08
2019-05-20T12:30:41.732Z,26.04
2019-05-20T12:33:19.711Z,26.00
2019-05-20T12:35:42.361Z,26.01
2019-05-20T12:38:12.184Z,26.25
2019-05-20T12:40:41.974Z,26.32
2019-05-20T12:43:11.538Z,26.21
2019-05-20T12:45:41.191Z,26.06
2019-05-20T12:48:10.715Z,25.87
2019-05-20T12:50:40.163Z,26.02
2019-05-20T12:53:10.057Z,26.25
2019-05-20T12:55:39.575Z,26.55
2019-05-20T12:58:09.246Z,26.43
2019-05-20T13:00:39.094Z,26.12
2019-05-20T13:03:08.611Z,25.89
2019-05-20T13:05:39.129Z,25.73
2019-05-20T13:08:08.917Z,25.60
2019-05-20T13:10:38.386Z,25.43
2019-05-20T13:13:08.284Z,25.30
2019-05-20T13:15:37.733Z,25.22
2019-05-20T13:18:08.712Z,25.21
2019-05-20T13:20:38.316Z,25.18
2019-05-20T13:23:11.118Z,25.19
2019-05-20T13:25:40.191Z,25.27
2019-05-20T13:28:09.806Z,25.34
2019-05-20T13:30:39.363Z,25.46
2019-05-20T13:33:09.088Z,25.63
2019-05-20T13:35:39.600Z,25.84
2019-05-20T13:38:09.113Z,25.86
2019-05-20T13:40:46.223Z,25.45
2019-05-20T13:43:10.386Z,25.19
2019-05-20T13:45:41.026Z,25.08
2019-05-20T13:48:11.525Z,25.04
2019-05-20T13:50:40.999Z,24.95
2019-05-20T13:53:10.559Z,24.79
2019-05-20T13:55:40.058Z,24.66
2019-05-20T13:58:09.922Z,24.53
2019-05-20T14:00:39.392Z,24.38
2019-05-20T14:03:08.990Z,24.25
2019-05-20T14:05:38.504Z,24.14
2019-05-20T14:08:08.087Z,24.03
2019-05-20T14:10:38.073Z,23.82
2019-05-20T14:13:07.527Z,23.54
2019-05-20T14:15:37.211Z,23.44
2019-05-20T14:18:06.777Z,23.42
2019-05-20T14:20:36.381Z,23.43
2019-05-20T14:23:06.280Z,23.44
2019-05-20T14:25:35.759Z,23.45
2019-05-20T14:28:05.355Z,23.48
2019-05-20T14:30:35.933Z,23.54
2019-05-20T14:33:05.884Z,23.64
2019-05-20T14:35:35.696Z,23.89
2019-05-20T14:38:05.197Z,24.15
2019-05-20T14:40:34.819Z,24.40
2019-05-20T14:43:04.403Z,24.54
2019-05-20T14:45:33.884Z,24.54
2019-05-20T14:48:03.641Z,24.62
2019-05-20T14:50:33.213Z,24.55
2019-05-20T14:53:02.818Z,24.37
2019-05-20T14:55:41.867Z,24.22
2019-05-20T14:58:03.504Z,24.13
2019-05-20T15:00:33.968Z,24.11
2019-05-20T15:03:03.786Z,24.11
2019-05-20T15:05:33.408Z,24.06
2019-05-20T15:08:02.948Z,23.94
2019-05-20T15:10:32.719Z,23.81
2019-05-20T15:13:02.229Z,23.71
2019-05-20T15:15:33.354Z,23.62
2019-05-20T15:18:02.805Z,23.51
2019-05-20T15:20:32.380Z,23.45
2019-05-20T15:23:01.820Z,23.38
2019-05-20T15:25:32.628Z,23.34
2019-05-20T15:28:03.279Z,23.27
2019-05-20T15:30:32.803Z,23.21
2019-05-20T15:33:02.575Z,23.19
2019-05-20T15:35:32.468Z,23.15
2019-05-20T15:38:01.963Z,23.12
2019-05-20T15:40:31.419Z,23.10
2019-05-20T15:43:01.125Z,23.04
2019-05-20T15:45:30.610Z,23.04
2019-05-20T15:48:00.594Z,23.01
2019-05-20T15:50:30.399Z,22.94
2019-05-20T15:52:59.926Z,22.83
2019-05-20T15:55:29.409Z,22.76
2019-05-20T15:57:58.964Z,22.73
2019-05-20T16:00:28.534Z,22.70
2019-05-20T16:02:58.289Z,22.66
2019-05-20T16:05:27.865Z,22.61
2019-05-20T16:07:57.325Z,22.59
2019-05-20T16:10:26.812Z,22.55
2019-05-20T16:12:56.266Z,22.51
2019-05-20T16:15:25.945Z,22.48
2019-05-20T16:17:55.721Z,22.25
2019-05-20T16:20:25.313Z,21.84
2019-05-20T16:22:54.775Z,21.28
2019-05-20T16:25:24.554Z,20.63
2019-05-20T16:27:54.592Z,20.16
2019-05-20T16:30:25.893Z,19.84
2019-05-20T16:32:55.348Z,19.67
2019-05-20T16:35:24.851Z,19.52
2019-05-20T16:37:54.578Z,19.34
2019-05-20T16:40:24.643Z,19.22
2019-05-20T16:42:54.160Z,19.16
2019-05-20T16:45:24.269Z,19.11
2019-05-20T16:47:54.147Z,19.04
2019-05-20T16:50:24.056Z,18.96
2019-05-20T16:52:53.620Z,18.82
2019-05-20T16:55:23.157Z,18.64
2019-05-20T16:57:52.778Z,18.47
2019-05-20T17:00:31.391Z,18.38
2019-05-20T17:02:53.624Z,18.40
2019-05-20T17:05:23.611Z,18.39
2019-05-20T17:07:53.431Z,18.39
2019-05-20T17:10:23.003Z,18.42
2019-05-20T17:12:52.842Z,18.46
2019-05-20T17:15:22.445Z,18.51
2019-05-20T17:17:52.359Z,18.58
2019-05-20T17:20:22.066Z,18.65
2019-05-20T17:22:51.736Z,18.70
2019-05-20T17:25:21.478Z,18.73
2019-05-20T17:27:51.126Z,18.78
2019-05-20T17:30:20.678Z,18.81
2019-05-20T17:32:51.141Z,18.85
2019-05-20T17:35:21.337Z,18.85
2019-05-20T17:37:54.710Z,18.85
2019-05-20T17:40:29.692Z,18.86
2019-05-20T17:42:59.695Z,18.88
2019-05-20T17:45:29.651Z,18.89
2019-05-20T17:47:59.311Z,18.88
2019-05-20T17:50:29.263Z,18.90
2019-05-20T17:52:58.871Z,18.89
2019-05-20T17:55:29.577Z,18.87
2019-05-20T17:58:00.348Z,18.85
2019-05-20T18:00:29.910Z,18.87
2019-05-20T18:02:59.486Z,18.87
2019-05-20T18:05:28.958Z,18.86
2019-05-20T18:07:58.872Z,18.84
2019-05-20T18:10:28.408Z,18.83
2019-05-20T18:12:57.915Z,18.80
2019-05-20T18:15:27.571Z,18.74
2019-05-20T18:17:57.134Z,18.62
2019-05-20T18:20:26.675Z,18.39
2019-05-20T18:22:56.255Z,18.18
2019-05-20T18:25:25.710Z,17.92
2019-05-20T18:27:55.215Z,17.81
2019-05-20T18:30:26.089Z,17.83
2019-05-20T18:32:55.998Z,17.88
2019-05-20T18:35:25.517Z,17.86
2019-05-20T18:37:55.011Z,17.85
2019-05-20T18:40:24.543Z,17.76
2019-05-20T18:42:54.043Z,17.67
2019-05-20T18:45:23.934Z,17.67
2019-05-20T18:47:53.442Z,17.69
2019-05-20T18:50:22.999Z,17.68
2019-05-20T18:52:52.526Z,17.71
2019-05-20T18:55:22.028Z,17.72
2019-05-20T18:57:51.785Z,17.76
2019-05-20T19:00:22.424Z,17.77
2019-05-20T19:02:53.772Z,17.78
2019-05-20T19:05:23.889Z,17.80
2019-05-20T19:07:53.738Z,17.79
2019-05-20T19:10:24.470Z,17.82
2019-05-20T19:12:56.587Z,17.83
2019-05-20T19:15:26.643Z,17.83
2019-05-20T19:17:56.956Z,17.85
2019-05-20T19:20:27.680Z,17.85
2019-05-20T19:22:58.843Z,17.81
2019-05-20T19:25:37.338Z,17.78
2019-05-20T19:27:59.907Z,17.70
2019-05-20T19:30:29.475Z,17.60
2019-05-20T19:32:59.141Z,17.54
2019-05-20T19:35:28.720Z,17.52
2019-05-20T19:37:58.592Z,17.49
2019-05-20T19:40:28.273Z,17.50
2019-05-20T19:42:57.949Z,17.56
2019-05-20T19:45:27.570Z,17.59
2019-05-20T19:47:57.227Z,17.60
2019-05-20T19:50:27.139Z,17.64
2019-05-20T19:52:56.720Z,17.65
2019-05-20T19:55:26.239Z,17.64
2019-05-20T19:57:55.819Z,17.63
2019-05-20T20:00:25.547Z,17.58
2019-05-20T20:02:55.081Z,17.55
2019-05-20T20:05:27.505Z,17.56
2019-05-20T20:07:57.970Z,17.55
2019-05-20T20:10:28.347Z,17.57
2019-05-20T20:12:58.457Z,17.58
2019-05-20T20:15:28.662Z,17.62
2019-05-20T20:17:59.047Z,17.67
2019-05-20T20:20:28.814Z,17.73
2019-05-20T20:22:58.692Z,17.75
2019-05-20T20:25:28.991Z,17.74
2019-05-20T20:27:59.196Z,17.70
2019-05-20T20:30:28.787Z,17.70
2019-05-20T20:32:58.565Z,17.70
2019-05-20T20:35:37.568Z,17.67
2019-05-20T20:37:59.956Z,17.65
2019-05-20T20:40:30.388Z,17.58
2019-05-20T20:43:00.215Z,17.52
2019-05-20T20:45:30.597Z,17.46
2019-05-20T20:48:00.527Z,17.44
2019-05-20T20:50:31.126Z,17.44
2019-05-20T20:53:00.624Z,17.46
2019-05-20T20:55:30.092Z,17.46
2019-05-20T20:57:59.716Z,17.47
2019-05-20T21:00:30.564Z,17.49
2019-05-20T21:03:00.357Z,17.51
2019-05-20T21:05:30.334Z,17.52
2019-05-20T21:07:59.821Z,17.52
2019-05-20T21:10:29.289Z,17.52
2019-05-20T21:12:59.153Z,17.49
2019-05-20T21:15:28.601Z,17.49
2019-05-20T21:17:58.096Z,17.49
2019-05-20T21:20:27.553Z,17.48
2019-05-20T21:22:57.083Z,17.46
2019-05-20T21:25:26.619Z,17.46
2019-05-20T21:27:56.261Z,17.48
2019-05-20T21:30:26.078Z,17.47
2019-05-20T21:33:08.152Z,17.44
2019-05-20T21:35:26.744Z,17.43
2019-05-20T21:37:56.191Z,17.44
2019-05-20T21:40:26.046Z,17.45
2019-05-20T21:42:55.508Z,17.46
2019-05-20T21:45:25.086Z,17.45
2019-05-20T21:47:54.533Z,17.46
2019-05-20T21:50:24.322Z,17.49
2019-05-20T21:52:53.820Z,17.49
2019-05-20T21:55:23.335Z,17.48
2019-05-20T21:57:52.874Z,17.48
2019-05-20T22:00:24.202Z,17.48
2019-05-20T22:02:55.277Z,17.46
2019-05-20T22:05:24.787Z,17.47
2019-05-20T22:07:54.278Z,17.45
2019-05-20T22:10:23.850Z,17.42
2019-05-20T22:12:53.722Z,17.40
2019-05-20T22:15:23.179Z,17.39
2019-05-20T22:17:52.684Z,17.42
2019-05-20T22:20:22.150Z,17.39
2019-05-20T22:22:55.974Z,17.38
2019-05-20T22:25:25.444Z,17.39
2019-05-20T22:27:54.944Z,17.40
2019-05-20T22:30:24.489Z,17.40
2019-05-20T22:32:53.984Z,17.36
2019-05-20T22:35:23.436Z,17.26
2019-05-20T22:37:53.011Z,17.17
2019-05-20T22:40:22.631Z,17.06
2019-05-20T22:42:52.127Z,16.96
2019-05-20T22:45:21.660Z,16.93
2019-05-20T22:47:51.444Z,16.92
2019-05-20T22:50:20.910Z,16.90
2019-05-20T22:52:51.998Z,16.84
2019-05-20T22:55:21.636Z,16.87
2019-05-20T22:57:51.089Z,16.91
2019-05-20T23:00:20.743Z,16.89
2019-05-20T23:02:50.618Z,16.91
2019-05-20T23:05:20.126Z,16.92
2019-05-20T23:07:49.593Z,16.90
2019-05-20T23:10:19.368Z,16.90
2019-05-20T23:12:48.823Z,16.90
2019-05-20T23:15:18.316Z,16.93
2019-05-20T23:17:47.855Z,16.92
2019-05-20T23:20:17.781Z,16.94
2019-05-20T23:22:47.291Z,16.94
2019-05-20T23:25:16.816Z,16.95
2019-05-20T23:27:46.322Z,16.96
2019-05-20T23:30:16.472Z,16.96
2019-05-20T23:32:46.028Z,16.96
2019-05-20T23:35:15.598Z,16.97
2019-05-20T23:37:45.166Z,16.95
2019-05-20T23:40:14.625Z,16.96
2019-05-20T23:42:44.276Z,16.98
2019-05-20T23:45:14.233Z,17.00
2019-05-20T23:47:43.794Z,16.99
2019-05-20T23:50:13.482Z,16.98
2019-05-20T23:52:43.111Z,16.96
2019-05-20T23:55:12.743Z,16.91
2019-05-20T23:57:42.260Z,16.86
